AVA9384 SKCL-SKRG
Flight info
| Callsign | AVA9384 |
|---|---|
| Flight time | 0h 32m |
| Altitude | 23000 |
| Route | ULQ1K ULQ W3 ISVON ISVON4A |
| Aircraft | A320/M-SDE3FGHIRWY/LB1 |
Departure
| Time | 2026-04-22 23:55 |
|---|---|
| Airport | Alfonso Bonilla Aragon International Airport (SKCL) |
Arrival
| Time | 2026-04-23 00:28 |
|---|---|
| Airport | Jose Maria Córdova International Airport (SKRG) |
| Time | Latitude | Longitude | Altitude | Speed | Heading |
|---|---|---|---|---|---|
| 2026-04-22 23:19 | 3.53847 | -76.38775 | 3157 ft | 0 kts | 142° |
| 2026-04-22 23:19 | 3.53849 | -76.38777 | 3163 ft | 0 kts | 142° |
| 2026-04-22 23:44 | 3.53860 | -76.38785 | 3163 ft | 3 kts | 150° |
| 2026-04-22 23:45 | 3.53878 | -76.38793 | 3164 ft | 3 kts | 170° |
| 2026-04-22 23:45 | 3.53898 | -76.38794 | 3164 ft | 3 kts | 188° |
| 2026-04-22 23:45 | 3.53918 | -76.38791 | 3163 ft | 3 kts | 179° |
| 2026-04-22 23:45 | 3.53929 | -76.38790 | 3166 ft | 1 kts | 109° |
| 2026-04-22 23:46 | 3.53930 | -76.38791 | 3163 ft | 1 kts | 101° |
| 2026-04-22 23:48 | 3.53928 | -76.38784 | 3165 ft | 2 kts | 100° |
| 2026-04-22 23:49 | 3.53924 | -76.38758 | 3165 ft | 5 kts | 100° |
| 2026-04-22 23:49 | 3.53917 | -76.38720 | 3163 ft | 5 kts | 99° |
| 2026-04-22 23:49 | 3.53912 | -76.38692 | 3163 ft | 3 kts | 99° |
| 2026-04-22 23:49 | 3.53909 | -76.38674 | 3163 ft | 2 kts | 99° |
| 2026-04-22 23:50 | 3.53903 | -76.38660 | 3163 ft | 5 kts | 124° |
| 2026-04-22 23:50 | 3.53856 | -76.38624 | 3163 ft | 10 kts | 145° |
| 2026-04-22 23:50 | 3.53798 | -76.38585 | 3163 ft | 9 kts | 145° |
| 2026-04-22 23:50 | 3.53747 | -76.38549 | 3164 ft | 9 kts | 144° |
| 2026-04-22 23:51 | 3.53691 | -76.38510 | 3163 ft | 11 kts | 145° |
| 2026-04-22 23:51 | 3.53628 | -76.38466 | 3163 ft | 11 kts | 144° |
| 2026-04-22 23:51 | 3.53558 | -76.38462 | 3161 ft | 10 kts | 190° |
| 2026-04-22 23:51 | 3.53497 | -76.38473 | 3162 ft | 8 kts | 189° |
| 2026-04-22 23:52 | 3.53436 | -76.38483 | 3162 ft | 9 kts | 189° |
| 2026-04-22 23:52 | 3.53367 | -76.38496 | 3162 ft | 12 kts | 191° |
| 2026-04-22 23:52 | 3.53268 | -76.38512 | 3161 ft | 18 kts | 190° |
| 2026-04-22 23:52 | 3.53144 | -76.38534 | 3162 ft | 18 kts | 189° |
| 2026-04-22 23:53 | 3.53041 | -76.38552 | 3162 ft | 6 kts | 190° |
| 2026-04-22 23:53 | 3.53007 | -76.38545 | 3161 ft | 5 kts | 134° |
| 2026-04-22 23:53 | 3.52993 | -76.38495 | 3160 ft | 7 kts | 99° |
| 2026-04-22 23:53 | 3.52992 | -76.38447 | 3160 ft | 7 kts | 72° |
| 2026-04-22 23:54 | 3.53008 | -76.38399 | 3159 ft | 8 kts | 69° |
| 2026-04-22 23:54 | 3.53055 | -76.38386 | 3158 ft | 7 kts | 9° |
| 2026-04-22 23:54 | 3.53059 | -76.38385 | 3158 ft | 0 kts | 11° |
| 2026-04-22 23:54 | 3.53060 | -76.38385 | 3158 ft | 3 kts | 11° |
| 2026-04-22 23:55 | 3.53345 | -76.38336 | 3161 ft | 79 kts | 10° |
| 2026-04-22 23:55 | 3.54100 | -76.38205 | 3169 ft | 139 kts | 10° |
| 2026-04-22 23:55 | 3.55212 | -76.38009 | 3323 ft | 174 kts | 7° |
| 2026-04-22 23:55 | 3.56397 | -76.37800 | 4003 ft | 178 kts | 9° |
| 2026-04-22 23:56 | 3.57635 | -76.37562 | 4626 ft | 182 kts | 10° |
| 2026-04-22 23:56 | 3.58933 | -76.37332 | 4981 ft | 199 kts | 9° |
| 2026-04-22 23:56 | 3.60370 | -76.37091 | 5284 ft | 217 kts | 9° |
| 2026-04-22 23:56 | 3.61885 | -76.36838 | 5915 ft | 222 kts | 9° |
| 2026-04-22 23:57 | 3.63421 | -76.36579 | 6626 ft | 225 kts | 9° |
| 2026-04-22 23:57 | 3.64977 | -76.36203 | 7121 ft | 240 kts | 15° |
| 2026-04-22 23:57 | 3.66648 | -76.35701 | 7439 ft | 263 kts | 17° |
| 2026-04-22 23:57 | 3.68474 | -76.35121 | 7857 ft | 283 kts | 18° |
| 2026-04-22 23:58 | 3.70380 | -76.34509 | 8548 ft | 291 kts | 18° |
| 2026-04-22 23:58 | 3.72322 | -76.33889 | 9324 ft | 295 kts | 18° |
| 2026-04-22 23:58 | 3.74301 | -76.33262 | 10094 ft | 300 kts | 17° |
| 2026-04-22 23:58 | 3.76303 | -76.32630 | 10814 ft | 303 kts | 17° |
| 2026-04-22 23:59 | 3.78326 | -76.31997 | 11551 ft | 307 kts | 17° |
| 2026-04-22 23:59 | 3.80378 | -76.31357 | 12272 ft | 310 kts | 16° |
| 2026-04-22 23:59 | 3.82447 | -76.30711 | 12990 ft | 314 kts | 16° |
| 2026-04-22 23:59 | 3.84584 | -76.30044 | 13287 ft | 334 kts | 16° |
| 2026-04-23 00:00 | 3.89239 | -76.28593 | 14076 ft | 359 kts | 16° |
| 2026-04-23 00:00 | 3.90832 | -76.28094 | 14464 ft | 362 kts | 16° |
| 2026-04-23 00:00 | 3.94063 | -76.27083 | 15242 ft | 366 kts | 16° |
| 2026-04-23 00:01 | 3.96513 | -76.26316 | 15828 ft | 370 kts | 16° |
| 2026-04-23 00:01 | 3.98946 | -76.25553 | 16395 ft | 373 kts | 16° |
| 2026-04-23 00:01 | 4.01463 | -76.24764 | 16985 ft | 376 kts | 16° |
| 2026-04-23 00:01 | 4.03977 | -76.23978 | 17558 ft | 380 kts | 16° |
| 2026-04-23 00:02 | 4.06508 | -76.23188 | 18122 ft | 383 kts | 17° |
| 2026-04-23 00:02 | 4.09047 | -76.22326 | 18613 ft | 387 kts | 22° |
| 2026-04-23 00:02 | 4.11417 | -76.21094 | 19064 ft | 391 kts | 29° |
| 2026-04-23 00:02 | 4.13787 | -76.19739 | 19554 ft | 394 kts | 29° |
| 2026-04-23 00:03 | 4.16179 | -76.18382 | 20030 ft | 396 kts | 28° |
| 2026-04-23 00:03 | 4.18590 | -76.17019 | 20501 ft | 399 kts | 28° |
| 2026-04-23 00:03 | 4.21021 | -76.15648 | 20961 ft | 402 kts | 28° |
| 2026-04-23 00:03 | 4.23465 | -76.14269 | 21415 ft | 405 kts | 28° |
| 2026-04-23 00:04 | 4.25928 | -76.12878 | 21858 ft | 408 kts | 28° |
| 2026-04-23 00:04 | 4.28407 | -76.11479 | 22302 ft | 410 kts | 28° |
| 2026-04-23 00:04 | 4.30905 | -76.10072 | 22729 ft | 413 kts | 28° |
| 2026-04-23 00:04 | 4.33416 | -76.08661 | 22975 ft | 415 kts | 28° |
| 2026-04-23 00:05 | 4.35897 | -76.07268 | 23025 ft | 401 kts | 28° |
| 2026-04-23 00:05 | 4.38309 | -76.05914 | 23028 ft | 394 kts | 28° |
| 2026-04-23 00:05 | 4.40692 | -76.04579 | 23037 ft | 392 kts | 28° |
| 2026-04-23 00:05 | 4.43062 | -76.03249 | 23041 ft | 391 kts | 28° |
| 2026-04-23 00:06 | 4.45438 | -76.01916 | 23041 ft | 391 kts | 28° |
| 2026-04-23 00:06 | 4.47780 | -76.00603 | 23045 ft | 391 kts | 28° |
| 2026-04-23 00:06 | 4.49385 | -75.99705 | 23044 ft | 391 kts | 28° |
| 2026-04-23 00:06 | 4.52539 | -75.97944 | 23049 ft | 391 kts | 28° |
| 2026-04-23 00:07 | 4.54912 | -75.96620 | 23026 ft | 391 kts | 28° |
| 2026-04-23 00:07 | 4.57289 | -75.95293 | 23024 ft | 391 kts | 28° |
| 2026-04-23 00:07 | 4.59659 | -75.93968 | 23027 ft | 391 kts | 28° |
| 2026-04-23 00:07 | 4.62035 | -75.92638 | 23023 ft | 391 kts | 28° |
| 2026-04-23 00:08 | 4.64410 | -75.91311 | 23023 ft | 391 kts | 28° |
| 2026-04-23 00:08 | 4.66010 | -75.90415 | 23021 ft | 391 kts | 28° |
| 2026-04-23 00:08 | 4.69155 | -75.88652 | 23018 ft | 391 kts | 28° |
| 2026-04-23 00:08 | 4.70730 | -75.87770 | 23017 ft | 390 kts | 28° |
| 2026-04-23 00:09 | 4.73094 | -75.86447 | 23015 ft | 390 kts | 28° |
| 2026-04-23 00:09 | 4.75471 | -75.85120 | 23015 ft | 390 kts | 28° |
| 2026-04-23 00:09 | 4.77854 | -75.83817 | 23096 ft | 390 kts | 24° |
| 2026-04-23 00:09 | 4.80376 | -75.82836 | 23102 ft | 389 kts | 18° |
| 2026-04-23 00:10 | 4.82936 | -75.81949 | 23098 ft | 389 kts | 18° |
| 2026-04-23 00:10 | 4.85494 | -75.81058 | 23097 ft | 389 kts | 18° |
| 2026-04-23 00:10 | 4.88054 | -75.80160 | 23100 ft | 389 kts | 18° |
| 2026-04-23 00:10 | 4.90605 | -75.79265 | 23096 ft | 389 kts | 18° |
| 2026-04-23 00:11 | 4.93160 | -75.78369 | 23093 ft | 389 kts | 18° |
| 2026-04-23 00:11 | 4.95719 | -75.77475 | 23093 ft | 389 kts | 18° |
| 2026-04-23 00:11 | 4.98277 | -75.76582 | 23092 ft | 389 kts | 18° |
| 2026-04-23 00:11 | 5.00834 | -75.75691 | 23089 ft | 389 kts | 18° |
| 2026-04-23 00:12 | 5.03388 | -75.74800 | 23087 ft | 387 kts | 18° |
| 2026-04-23 00:12 | 5.05851 | -75.73941 | 22985 ft | 375 kts | 18° |
| 2026-04-23 00:12 | 5.08296 | -75.73088 | 22659 ft | 369 kts | 18° |
| 2026-04-23 00:12 | 5.10703 | -75.72247 | 22364 ft | 365 kts | 18° |
| 2026-04-23 00:13 | 5.13127 | -75.71400 | 21966 ft | 362 kts | 18° |
| 2026-04-23 00:13 | 5.15500 | -75.70570 | 21565 ft | 360 kts | 18° |
| 2026-04-23 00:13 | 5.17856 | -75.69748 | 21167 ft | 357 kts | 18° |
| 2026-04-23 00:13 | 5.20199 | -75.68931 | 20769 ft | 355 kts | 18° |
| 2026-04-23 00:14 | 5.22526 | -75.68121 | 20391 ft | 353 kts | 18° |
| 2026-04-23 00:14 | 5.24845 | -75.67316 | 20006 ft | 351 kts | 18° |
| 2026-04-23 00:14 | 5.27121 | -75.66529 | 19633 ft | 349 kts | 18° |
| 2026-04-23 00:14 | 5.29411 | -75.65735 | 19273 ft | 347 kts | 18° |
| 2026-04-23 00:15 | 5.31691 | -75.64942 | 18912 ft | 346 kts | 18° |
| 2026-04-23 00:15 | 5.33957 | -75.64153 | 18564 ft | 344 kts | 18° |
| 2026-04-23 00:15 | 5.36211 | -75.63366 | 18194 ft | 342 kts | 19° |
| 2026-04-23 00:15 | 5.38451 | -75.62579 | 17829 ft | 340 kts | 18° |
| 2026-04-23 00:16 | 5.40653 | -75.61747 | 17469 ft | 338 kts | 24° |
| 2026-04-23 00:16 | 5.42741 | -75.60660 | 17101 ft | 337 kts | 27° |
| 2026-04-23 00:16 | 5.44796 | -75.59569 | 16770 ft | 334 kts | 27° |
| 2026-04-23 00:16 | 5.46850 | -75.58482 | 16456 ft | 332 kts | 27° |
| 2026-04-23 00:17 | 5.48884 | -75.57406 | 16120 ft | 330 kts | 27° |
| 2026-04-23 00:17 | 5.50914 | -75.56333 | 15808 ft | 329 kts | 27° |
| 2026-04-23 00:17 | 5.52932 | -75.55265 | 15494 ft | 327 kts | 27° |
| 2026-04-23 00:17 | 5.54941 | -75.54202 | 15178 ft | 326 kts | 27° |
| 2026-04-23 00:18 | 5.56939 | -75.53144 | 14887 ft | 324 kts | 27° |
| 2026-04-23 00:18 | 5.58923 | -75.52093 | 14586 ft | 323 kts | 27° |
| 2026-04-23 00:18 | 5.60908 | -75.51041 | 14296 ft | 321 kts | 27° |
| 2026-04-23 00:18 | 5.62876 | -75.49995 | 14005 ft | 320 kts | 27° |
| 2026-04-23 00:19 | 5.64841 | -75.48953 | 13686 ft | 318 kts | 27° |
| 2026-04-23 00:19 | 5.66792 | -75.47919 | 13348 ft | 317 kts | 27° |
| 2026-04-23 00:19 | 5.68738 | -75.46888 | 13004 ft | 315 kts | 27° |
| 2026-04-23 00:19 | 5.70670 | -75.45866 | 12842 ft | 314 kts | 27° |
| 2026-04-23 00:20 | 5.72595 | -75.44846 | 12860 ft | 308 kts | 27° |
| 2026-04-23 00:20 | 5.74454 | -75.43859 | 12872 ft | 295 kts | 27° |
| 2026-04-23 00:20 | 5.76210 | -75.42931 | 12875 ft | 277 kts | 25° |
| 2026-04-23 00:20 | 5.78012 | -75.42323 | 12870 ft | 271 kts | 8° |
| 2026-04-23 00:21 | 5.79871 | -75.42198 | 12701 ft | 265 kts | 358° |
| 2026-04-23 00:21 | 5.81671 | -75.42198 | 12504 ft | 253 kts | 358° |
| 2026-04-23 00:21 | 5.83408 | -75.42201 | 12172 ft | 248 kts | 358° |
| 2026-04-23 00:21 | 5.85119 | -75.42179 | 11908 ft | 242 kts | 1° |
| 2026-04-23 00:22 | 5.86762 | -75.42130 | 11908 ft | 232 kts | 359° |
| 2026-04-23 00:22 | 5.88355 | -75.42127 | 11895 ft | 225 kts | 358° |
| 2026-04-23 00:22 | 5.89897 | -75.42138 | 11670 ft | 219 kts | 358° |
| 2026-04-23 00:22 | 5.91414 | -75.42149 | 11412 ft | 217 kts | 358° |
| 2026-04-23 00:23 | 5.92921 | -75.42159 | 11152 ft | 216 kts | 358° |
| 2026-04-23 00:23 | 5.94430 | -75.42169 | 10886 ft | 216 kts | 358° |
| 2026-04-23 00:23 | 5.95926 | -75.42178 | 10633 ft | 215 kts | 358° |
| 2026-04-23 00:23 | 5.97409 | -75.42188 | 10386 ft | 211 kts | 358° |
| 2026-04-23 00:24 | 5.98863 | -75.42197 | 10131 ft | 205 kts | 358° |
| 2026-04-23 00:24 | 6.00261 | -75.42206 | 9864 ft | 196 kts | 358° |
| 2026-04-23 00:24 | 6.01616 | -75.42215 | 9611 ft | 192 kts | 358° |
| 2026-04-23 00:24 | 6.02944 | -75.42224 | 9366 ft | 190 kts | 358° |
| 2026-04-23 00:25 | 6.04261 | -75.42233 | 9127 ft | 188 kts | 358° |
| 2026-04-23 00:25 | 6.05543 | -75.42241 | 8888 ft | 180 kts | 358° |
| 2026-04-23 00:25 | 6.06785 | -75.42249 | 8653 ft | 177 kts | 358° |
| 2026-04-23 00:25 | 6.08005 | -75.42257 | 8435 ft | 173 kts | 358° |
| 2026-04-23 00:26 | 6.09197 | -75.42265 | 8223 ft | 170 kts | 359° |
| 2026-04-23 00:26 | 6.10378 | -75.42272 | 7995 ft | 169 kts | 359° |
| 2026-04-23 00:26 | 6.11548 | -75.42283 | 7735 ft | 168 kts | 358° |
| 2026-04-23 00:26 | 6.12707 | -75.42293 | 7481 ft | 166 kts | 359° |
| 2026-04-23 00:27 | 6.13856 | -75.42293 | 7244 ft | 164 kts | 359° |
| 2026-04-23 00:27 | 6.14990 | -75.42303 | 6995 ft | 161 kts | 359° |
| 2026-04-23 00:27 | 6.15990 | -75.42311 | 6981 ft | 121 kts | 360° |
| 2026-04-23 00:27 | 6.16657 | -75.42315 | 7004 ft | 71 kts | 359° |
| 2026-04-23 00:28 | 6.17039 | -75.42318 | 7019 ft | 48 kts | 359° |
| 2026-04-23 00:28 | 6.17355 | -75.42319 | 7022 ft | 43 kts | 359° |
| 2026-04-23 00:28 | 6.17527 | -75.42321 | 7026 ft | 17 kts | 359° |
| 2026-04-23 00:28 | 6.17572 | -75.42399 | 7020 ft | 16 kts | 269° |
| 2026-04-23 00:29 | 6.17572 | -75.42435 | 7020 ft | 0 kts | 270° |
| 2026-04-23 00:29 | 6.17572 | -75.42454 | 7019 ft | 6 kts | 270° |
| 2026-04-23 00:29 | 6.17551 | -75.42504 | 7021 ft | 10 kts | 220° |
| 2026-04-23 00:30 | 6.17488 | -75.42547 | 7018 ft | 11 kts | 214° |
| 2026-04-23 00:30 | 6.17426 | -75.42589 | 7017 ft | 11 kts | 213° |
| 2026-04-23 00:30 | 6.17357 | -75.42620 | 7017 ft | 11 kts | 182° |
| 2026-04-23 00:30 | 6.17301 | -75.42620 | 7016 ft | 6 kts | 179° |
| 2026-04-23 00:31 | 6.17262 | -75.42620 | 7018 ft | 6 kts | 179° |
| 2026-04-23 00:31 | 6.17203 | -75.42618 | 7016 ft | 11 kts | 178° |
| 2026-04-23 00:31 | 6.17123 | -75.42615 | 7016 ft | 11 kts | 178° |
| 2026-04-23 00:31 | 6.17059 | -75.42635 | 7018 ft | 9 kts | 216° |
| 2026-04-23 00:32 | 6.17013 | -75.42670 | 7019 ft | 8 kts | 217° |
| 2026-04-23 00:32 | 6.16969 | -75.42709 | 7018 ft | 9 kts | 226° |
| 2026-04-23 00:32 | 6.16958 | -75.42752 | 7016 ft | 7 kts | 313° |
| 2026-04-23 00:32 | 6.16982 | -75.42763 | 7016 ft | 2 kts | 332° |
| 2026-04-23 00:33 | 6.16988 | -75.42766 | 7018 ft | 0 kts | 331° |
| 2026-04-23 00:33 | 6.16988 | -75.42767 | 7018 ft | 0 kts | 331° |